CST,Max TemperatureF,Mean TemperatureF,Min TemperatureF,Max Dew PointF,MeanDew PointF,Min DewpointF,Max Humidity, Mean Humidity, Min Humidity, Max Sea Level PressureIn, Mean Sea Level PressureIn, Min Sea Level PressureIn, Max VisibilityMiles, Mean VisibilityMiles, Min VisibilityMiles, Max Wind SpeedMPH, Mean Wind SpeedMPH, Max Gust SpeedMPH,PrecipitationIn, CloudCover, Events, WindDirDegrees
2013-2-1,75,64,52,52,47,41,81,55,29,30.33,30.25,30.19,10,10,10,13,5,18,0.00,4,,119
2013-2-2,81,72,62,59,56,52,80,64,40,30.24,30.19,30.12,10,10,10,13,4,18,0.00,6,,140
2013-2-3,79,68,58,58,53,42,90,62,29,30.28,30.18,30.03,10,10,10,16,5,21,0.00,2,,112
2013-2-4,87,72,57,63,57,51,89,62,29,30.01,29.88,29.77,10,10,10,20,8,28,0.00,1,,169
2013-2-5,89,76,64,67,62,51,93,70,27,29.96,29.88,29.82,10,9,7,14,6,21,0.00,1,,157
2013-2-6,87,76,66,68,65,62,87,72,44,29.93,29.86,29.75,10,9,7,16,9,22,0.00,5,,139
2013-2-7,83,74,65,67,63,61,90,75,48,30.00,29.91,29.86,10,8,4,10,2,16,0.00,5,,26
2013-2-8,76,68,59,64,57,53,93,71,44,30.18,30.08,29.98,10,8,0,14,5,22,0.00,4,Fog,53
2013-2-9,84,70,57,68,64,55,92,76,50,30.05,29.91,29.79,10,9,5,23,8,31,0.00,6,,137
2013-2-10,94,82,71,68,66,59,84,67,31,29.88,29.79,29.72,10,8,5,22,14,29,0.00,3,,164
2013-2-11,84,74,64,66,61,56,88,73,48,29.95,29.88,29.80,10,8,5,15,8,22,0.00,7,,8
2013-2-12,81,70,59,62,58,51,93,74,50,29.97,29.86,29.78,10,8,2,12,7,18,0.00,6,,359
2013-2-13,69,61,53,53,41,27,74,49,22,30.16,30.06,29.95,10,10,10,14,7,22,0.00,4,,21
2013-2-14,76,60,43,46,40,32,87,55,20,30.16,30.08,30.01,10,10,7,15,3,21,0.00,0,,83
2013-2-15,79,62,46,52,44,35,90,59,20,30.26,30.11,30.04,10,10,10,17,4,24,0.00,1,,64
2013-2-16,69,60,49,47,34,20,63,43,16,30.47,30.36,30.26,10,10,10,15,8,23,0.00,3,,39
2013-2-17,71,58,46,57,47,36,73,59,42,30.30,30.14,30.00,10,10,10,25,10,36,0.00,4,,149
2013-2-18,85,76,66,62,60,58,82,65,41,29.99,29.91,29.83,10,10,7,24,15,34,0.00,4,,165
2013-2-19,76,71,66,62,60,58,84,72,55,30.06,30.04,30.00,10,10,10,17,13,24,0.00,5,,98
2013-2-20,81,74,66,66,64,61,88,73,51,29.99,29.82,29.65,10,9,5,28,14,40,0.00,6,,146
2013-2-21,95,82,70,68,63,52,82,62,27,29.81,29.67,29.60,10,9,7,25,16,37,0.00,3,,154
2013-2-22,79,72,66,63,58,52,76,63,49,29.89,29.83,29.77,10,10,7,15,8,21,0.00,7,,23
2013-2-23,79,68,58,58,48,44,83,55,31,30.02,29.92,29.86,10,10,10,16,9,22,0.00,4,,26
2013-2-24,82,70,58,65,60,54,89,72,49,29.90,29.75,29.62,10,9,7,10,4,,0.00,5,,134
2013-2-25,78,68,56,67,37,2,88,43,6,29.91,29.70,29.54,10,7,4,32,14,43,0.00,4,,321
2013-2-26,76,60,45,42,25,16,64,29,10,30.05,29.95,29.86,10,10,10,14,6,21,0.00,0,,289
2013-2-27,81,66,52,52,41,19,87,49,12,30.17,30.00,29.88,10,10,10,16,6,25,0.00,0,,29
2013-2-28,68,57,46,45,30,15,70,39,13,30.30,30.23,30.16,10,10,10,20,7,26,0.00,1,,19